createdAt,value
2022-11-20T00:01:37.897Z,-16.38
2022-11-20T00:04:41.399Z,-16.44
2022-11-20T00:07:45.466Z,-16.34
2022-11-20T00:10:49.335Z,-16.37
2022-11-20T00:13:55.514Z,-16.34
2022-11-20T00:16:59.430Z,-16.28
2022-11-20T00:20:03.280Z,-16.24
2022-11-20T00:23:07.537Z,-16.14
2022-11-20T00:26:16.938Z,-16.06
2022-11-20T00:29:20.961Z,-16.02
2022-11-20T00:32:25.635Z,-15.97
2022-11-20T00:35:28.796Z,-15.93
2022-11-20T00:38:34.045Z,-15.79
2022-11-20T00:41:38.049Z,-15.81
2022-11-20T00:44:41.600Z,-15.85
2022-11-20T00:47:45.358Z,-15.99
2022-11-20T00:50:48.466Z,-15.81
2022-11-20T00:53:58.422Z,-15.85
2022-11-20T00:57:02.192Z,-15.66
2022-11-20T01:00:06.136Z,-15.64
2022-11-20T01:03:09.670Z,-15.65
2022-11-20T01:06:22.568Z,-15.58
2022-11-20T01:09:26.546Z,-15.61
2022-11-20T01:12:30.258Z,-15.45
2022-11-20T01:15:35.693Z,-15.45
2022-11-20T01:18:42.078Z,-15.34
2022-11-20T01:21:48.273Z,-15.37
2022-11-20T01:24:51.841Z,-15.40
2022-11-20T01:27:55.596Z,-15.31
2022-11-20T01:30:59.531Z,-15.22
2022-11-20T01:34:08.483Z,-15.03
2022-11-20T01:37:11.896Z,-14.81
2022-11-20T01:40:15.249Z,-14.71
2022-11-20T01:43:23.219Z,-14.57
2022-11-20T01:46:26.364Z,-14.46
2022-11-20T01:49:36.452Z,-14.32
2022-11-20T01:52:48.336Z,-14.16
2022-11-20T01:55:54.459Z,-14.09
2022-11-20T01:59:02.842Z,-13.96
2022-11-20T02:02:06.719Z,-13.88
2022-11-20T02:05:31.985Z,-13.85
2022-11-20T02:08:36.737Z,-13.78
2022-11-20T02:11:40.414Z,-13.64
2022-11-20T02:14:44.175Z,-13.51
2022-11-20T02:17:47.894Z,-13.42
2022-11-20T02:21:00.348Z,-13.27
2022-11-20T02:24:07.169Z,-13.20
2022-11-20T02:27:18.436Z,-13.18
2022-11-20T02:30:22.508Z,-13.09
2022-11-20T02:33:25.859Z,-12.99
2022-11-20T02:36:32.777Z,-12.96
2022-11-20T02:39:36.491Z,-12.75
2022-11-20T02:42:39.850Z,-12.59
2022-11-20T02:45:43.637Z,-12.61
2022-11-20T02:48:47.799Z,-12.47
2022-11-20T02:51:51.552Z,-12.56
2022-11-20T02:54:55.596Z,-12.59
2022-11-20T02:57:59.038Z,-12.63
2022-11-20T03:01:05.664Z,-12.74
2022-11-20T03:04:09.720Z,-12.70
2022-11-20T03:07:13.572Z,-12.59
2022-11-20T03:10:18.412Z,-12.32
2022-11-20T03:13:22.394Z,-12.11
2022-11-20T03:16:25.819Z,-11.88
2022-11-20T03:19:30.125Z,-11.70
2022-11-20T03:22:33.894Z,-11.61
2022-11-20T03:25:37.470Z,-11.40
2022-11-20T03:28:41.829Z,-11.22
2022-11-20T03:31:45.633Z,-11.08
2022-11-20T03:34:49.399Z,-10.92
2022-11-20T03:37:52.963Z,-10.83
2022-11-20T03:41:01.250Z,-10.85
2022-11-20T03:44:07.172Z,-10.92
2022-11-20T03:47:10.771Z,-11.00
2022-11-20T03:50:15.895Z,-10.91
2022-11-20T03:53:20.057Z,-10.89
2022-11-20T03:56:29.363Z,-10.97
2022-11-20T03:59:32.970Z,-11.04
2022-11-20T04:02:38.756Z,-10.75
2022-11-20T04:05:42.163Z,-10.70
2022-11-20T04:08:51.010Z,-10.73
2022-11-20T04:11:57.168Z,-10.56
2022-11-20T04:15:01.605Z,-10.46
2022-11-20T04:18:05.389Z,-10.43
2022-11-20T04:21:09.817Z,-10.32
2022-11-20T04:24:13.526Z,-10.24
2022-11-20T04:27:17.645Z,-10.21
2022-11-20T04:30:21.457Z,-10.04
2022-11-20T04:33:25.834Z,-9.81
2022-11-20T04:36:32.247Z,-9.49
2022-11-20T04:39:35.973Z,-9.21
2022-11-20T04:42:39.954Z,-8.80
2022-11-20T04:45:43.910Z,-8.49
2022-11-20T04:48:47.492Z,-8.21
2022-11-20T04:51:57.251Z,-8.02
2022-11-20T04:55:00.966Z,-7.53
2022-11-20T04:58:04.629Z,-7.21
2022-11-20T05:01:11.971Z,-7.21
2022-11-20T05:04:16.030Z,-7.52
2022-11-20T05:07:19.472Z,-8.05
2022-11-20T05:10:23.234Z,-8.38
2022-11-20T05:13:26.835Z,-8.47
2022-11-20T05:16:30.979Z,-8.50
2022-11-20T05:19:34.358Z,-8.50
2022-11-20T05:22:41.323Z,-8.54
2022-11-20T05:25:52.360Z,-8.39
2022-11-20T05:29:00.142Z,-8.26
2022-11-20T05:32:08.799Z,-8.08
2022-11-20T05:35:12.093Z,-7.93
2022-11-20T05:38:16.334Z,-7.83
2022-11-20T05:41:21.893Z,-7.61
2022-11-20T05:44:24.953Z,-7.43
2022-11-20T05:47:32.542Z,-7.44
2022-11-20T05:50:36.499Z,-7.29
2022-11-20T05:53:43.860Z,-7.09
2022-11-20T05:56:51.631Z,-6.95
2022-11-20T05:59:55.041Z,-6.77
2022-11-20T06:02:58.713Z,-6.69
2022-11-20T06:06:03.839Z,-6.60
2022-11-20T06:09:07.165Z,-6.53
2022-11-20T06:12:10.851Z,-6.43
2022-11-20T06:15:14.622Z,-6.45
2022-11-20T06:18:18.371Z,-6.40
2022-11-20T06:21:24.080Z,-6.36
2022-11-20T06:24:27.673Z,-6.30
2022-11-20T06:27:31.340Z,-6.39
2022-11-20T06:30:35.023Z,-6.24
2022-11-20T06:33:38.827Z,-6.25
2022-11-20T06:36:42.657Z,-6.18
2022-11-20T06:39:46.347Z,-6.21
2022-11-20T06:42:49.646Z,-6.14
2022-11-20T06:45:58.366Z,-5.98
2022-11-20T06:49:03.001Z,-5.90
2022-11-20T06:52:06.949Z,-5.90
2022-11-20T06:55:10.260Z,-5.97
2022-11-20T06:58:17.525Z,-5.84
2022-11-20T07:01:20.633Z,-5.71
2022-11-20T07:04:23.687Z,-5.64
2022-11-20T07:07:26.995Z,-5.56
2022-11-20T07:10:30.912Z,-5.38
2022-11-20T07:13:35.113Z,-5.33
2022-11-20T07:16:38.809Z,-5.29
2022-11-20T07:19:42.270Z,-5.25
2022-11-20T07:22:45.531Z,-5.21
2022-11-20T07:25:49.054Z,-5.12
2022-11-20T07:28:52.292Z,-5.03
2022-11-20T07:31:57.508Z,-4.98
2022-11-20T07:35:00.656Z,-5.00
2022-11-20T07:38:04.606Z,-5.00
2022-11-20T07:41:08.040Z,-5.04
2022-11-20T07:44:12.147Z,-5.08
2022-11-20T07:47:15.424Z,-5.12
2022-11-20T07:50:22.001Z,-5.15
2022-11-20T07:53:26.090Z,-5.19
2022-11-20T07:56:30.193Z,-5.25
2022-11-20T07:59:33.389Z,-5.33
2022-11-20T08:02:43.456Z,-5.48
2022-11-20T08:05:47.275Z,-5.50
2022-11-20T08:08:51.077Z,-5.55
2022-11-20T08:12:12.581Z,-5.76
2022-11-20T08:15:15.807Z,-5.94
2022-11-20T08:18:34.885Z,-6.12
2022-11-20T08:21:39.377Z,-6.33
2022-11-20T08:24:42.925Z,-6.57
2022-11-20T08:27:46.678Z,-6.90
2022-11-20T08:30:51.832Z,-7.29
2022-11-20T08:33:56.199Z,-7.60
2022-11-20T08:37:00.653Z,-7.94
2022-11-20T08:40:04.617Z,-8.24
2022-11-20T08:43:07.971Z,-8.40
2022-11-20T08:46:15.010Z,-8.64
2022-11-20T08:49:20.293Z,-8.90
2022-11-20T08:52:24.718Z,-9.12
2022-11-20T08:55:28.576Z,-9.28
2022-11-20T08:58:48.816Z,-9.39
2022-11-20T09:01:54.840Z,-9.42
2022-11-20T09:04:58.966Z,-9.44
2022-11-20T09:08:03.030Z,-9.49
2022-11-20T09:11:07.567Z,-9.53
2022-11-20T09:14:11.289Z,-9.49
2022-11-20T09:17:16.829Z,-9.60
2022-11-20T09:20:21.009Z,-9.75
2022-11-20T09:23:26.004Z,-10.04
2022-11-20T09:26:30.670Z,-10.21
2022-11-20T09:29:40.467Z,-10.54
2022-11-20T09:32:45.698Z,-10.70
2022-11-20T09:35:51.867Z,-10.71
2022-11-20T09:38:58.385Z,-10.73
2022-11-20T09:42:32.570Z,-10.75
2022-11-20T09:46:05.785Z,-10.84
2022-11-20T09:49:34.863Z,-10.95
2022-11-20T09:52:48.549Z,-11.08
2022-11-20T09:55:53.212Z,-11.11
2022-11-20T09:59:00.412Z,-11.16
2022-11-20T10:02:08.564Z,-11.19
2022-11-20T10:05:41.107Z,-11.25
2022-11-20T10:08:56.779Z,-11.29
2022-11-20T10:12:45.568Z,-11.33
2022-11-20T10:16:01.460Z,-11.33
2022-11-20T10:19:23.356Z,-11.39
2022-11-20T10:22:41.979Z,-11.42
2022-11-20T10:26:05.138Z,-11.43
2022-11-20T10:29:17.285Z,-11.46
2022-11-20T10:32:30.071Z,-11.57
2022-11-20T10:35:37.284Z,-11.61
2022-11-20T10:39:06.253Z,-11.63
2022-11-20T10:42:31.398Z,-11.70
2022-11-20T10:45:42.382Z,-11.78
2022-11-20T10:48:47.680Z,-11.85
2022-11-20T10:52:24.108Z,-11.95
2022-11-20T10:55:46.857Z,-12.11
2022-11-20T10:59:03.378Z,-12.25
2022-11-20T11:02:32.723Z,-12.30
2022-11-20T11:06:04.269Z,-12.29
2022-11-20T11:09:21.904Z,-12.35
2022-11-20T11:12:30.105Z,-12.35
2022-11-20T11:15:42.083Z,-12.25
2022-11-20T11:18:45.130Z,-12.18
2022-11-20T11:21:58.160Z,-12.09
2022-11-20T11:25:01.909Z,-12.11
2022-11-20T11:28:25.745Z,-12.14
2022-11-20T11:31:31.566Z,-12.12
2022-11-20T11:34:35.806Z,-12.19
2022-11-20T11:37:41.241Z,-12.22
2022-11-20T11:40:45.793Z,-12.24
2022-11-20T11:44:17.190Z,-12.29
2022-11-20T11:47:32.472Z,-12.36
2022-11-20T11:50:35.858Z,-12.36
2022-11-20T11:53:44.444Z,-12.39
2022-11-20T11:56:48.451Z,-12.40
2022-11-20T12:00:12.367Z,-12.46
2022-11-20T12:03:26.319Z,-12.46
2022-11-20T12:06:31.447Z,-12.49
2022-11-20T12:09:40.899Z,-12.46
2022-11-20T12:13:00.796Z,-12.52
2022-11-20T12:16:06.049Z,-12.52
2022-11-20T12:19:14.957Z,-12.59
2022-11-20T12:22:42.364Z,-12.74
2022-11-20T12:25:51.726Z,-12.92
2022-11-20T12:29:17.211Z,-13.05
2022-11-20T12:32:44.701Z,-13.15
2022-11-20T12:36:30.535Z,-13.30
2022-11-20T12:39:59.819Z,-13.51
2022-11-20T12:43:42.362Z,-13.67
2022-11-20T12:46:50.242Z,-13.85
2022-11-20T12:50:19.702Z,-13.96
2022-11-20T12:53:41.968Z,-14.13
2022-11-20T12:57:17.499Z,-14.22
2022-11-20T13:00:22.931Z,-14.30
2022-11-20T13:03:50.784Z,-14.44
2022-11-20T13:06:54.029Z,-14.57
2022-11-20T13:09:58.371Z,-14.63
2022-11-20T13:13:40.285Z,-14.69
2022-11-20T13:17:10.886Z,-14.72
2022-11-20T13:20:18.450Z,-14.79
2022-11-20T13:23:28.237Z,-14.85
2022-11-20T13:26:33.493Z,-14.81
2022-11-20T13:29:39.105Z,-14.84
2022-11-20T13:32:57.515Z,-14.86
2022-11-20T13:36:22.782Z,-14.91
2022-11-20T13:39:28.845Z,-14.92
2022-11-20T13:42:32.569Z,-14.96
2022-11-20T13:45:36.061Z,-14.99
2022-11-20T13:48:45.273Z,-15.06
2022-11-20T13:51:57.268Z,-15.15
2022-11-20T13:55:03.861Z,-15.20
2022-11-20T13:58:31.326Z,-15.26
2022-11-20T14:01:36.893Z,-15.30
2022-11-20T14:04:53.509Z,-15.33
2022-11-20T14:08:00.072Z,-15.40
2022-11-20T14:11:26.405Z,-15.45
2022-11-20T14:14:32.920Z,-15.47
2022-11-20T14:17:40.702Z,-15.47
2022-11-20T14:20:46.947Z,-15.50
2022-11-20T14:23:55.671Z,-15.54
2022-11-20T14:27:00.924Z,-15.59
2022-11-20T14:30:06.153Z,-15.65
2022-11-20T14:33:14.646Z,-15.69
2022-11-20T14:36:24.023Z,-15.69
2022-11-20T14:39:34.112Z,-15.82
2022-11-20T14:42:39.549Z,-15.89
2022-11-20T14:45:43.654Z,-15.96
2022-11-20T14:48:49.890Z,-16.00
2022-11-20T14:52:27.175Z,-16.09
2022-11-20T14:55:38.832Z,-16.12
2022-11-20T14:58:42.466Z,-16.14
2022-11-20T15:01:58.535Z,-16.17
2022-11-20T15:05:04.887Z,-16.25
2022-11-20T15:08:12.122Z,-16.27
2022-11-20T15:11:22.126Z,-16.33
2022-11-20T15:14:27.324Z,-16.35
2022-11-20T15:17:32.569Z,-16.45
2022-11-20T15:20:38.074Z,-16.62
2022-11-20T15:23:42.236Z,-16.71
2022-11-20T15:26:46.116Z,-16.73
2022-11-20T15:29:50.129Z,-16.79
2022-11-20T15:32:53.618Z,-16.80
2022-11-20T15:35:57.016Z,-16.90
2022-11-20T15:39:00.793Z,-16.89
2022-11-20T15:42:04.191Z,-16.92
2022-11-20T15:45:08.511Z,-16.96
2022-11-20T15:48:28.960Z,-17.02
2022-11-20T15:51:35.905Z,-17.02
2022-11-20T15:54:45.133Z,-16.99
2022-11-20T15:57:52.372Z,-16.96
2022-11-20T16:00:58.496Z,-16.99
2022-11-20T16:04:04.382Z,-17.06
2022-11-20T16:07:11.365Z,-17.03
2022-11-20T16:10:16.779Z,-17.06
2022-11-20T16:13:40.558Z,-17.07
2022-11-20T16:16:47.946Z,-17.13
2022-11-20T16:19:57.342Z,-17.18
2022-11-20T16:23:04.785Z,-17.18
2022-11-20T16:26:21.602Z,-17.27
2022-11-20T16:29:30.740Z,-17.31
2022-11-20T16:32:42.424Z,-17.35
2022-11-20T16:35:50.944Z,-17.42
2022-11-20T16:39:04.904Z,-17.48
2022-11-20T16:42:19.014Z,-17.58
2022-11-20T16:45:33.727Z,-17.62
2022-11-20T16:48:42.230Z,-17.66
2022-11-20T16:51:52.498Z,-17.67
2022-11-20T16:55:02.038Z,-17.67
2022-11-20T16:58:09.630Z,-17.72
2022-11-20T17:01:17.702Z,-17.77
2022-11-20T17:04:25.483Z,-17.83
2022-11-20T17:07:31.538Z,-17.77
2022-11-20T17:10:39.375Z,-17.82
2022-11-20T17:13:43.566Z,-17.85
2022-11-20T17:16:48.020Z,-17.89
2022-11-20T17:19:52.358Z,-17.93
2022-11-20T17:22:56.999Z,-17.98
2022-11-20T17:26:10.729Z,-18.01
2022-11-20T17:29:20.498Z,-18.15
2022-11-20T17:32:27.988Z,-18.24
2022-11-20T17:35:41.531Z,-18.31
2022-11-20T17:38:54.273Z,-18.34
2022-11-20T17:42:21.504Z,-18.35
2022-11-20T17:45:29.830Z,-18.45
2022-11-20T17:48:39.470Z,-18.48
2022-11-20T17:51:48.799Z,-18.52
2022-11-20T17:55:01.329Z,-18.60
2022-11-20T17:58:12.509Z,-18.66
2022-11-20T18:01:22.881Z,-18.69
2022-11-20T18:04:34.262Z,-18.66
2022-11-20T18:07:44.292Z,-18.59
2022-11-20T18:10:53.027Z,-18.57
2022-11-20T18:14:20.369Z,-18.59
2022-11-20T18:17:27.954Z,-18.56
2022-11-20T18:20:39.750Z,-18.60
2022-11-20T18:23:48.720Z,-18.62
2022-11-20T18:26:57.345Z,-18.59
2022-11-20T18:30:08.517Z,-18.57
2022-11-20T18:33:26.965Z,-18.62
2022-11-20T18:36:37.640Z,-18.62
2022-11-20T18:39:46.379Z,-18.66
2022-11-20T18:43:11.178Z,-18.67
2022-11-20T18:46:22.973Z,-18.73
2022-11-20T18:49:34.054Z,-18.74
2022-11-20T18:52:50.346Z,-18.79
2022-11-20T18:55:57.946Z,-18.81
2022-11-20T18:59:09.138Z,-18.87
2022-11-20T19:02:23.489Z,-18.98
2022-11-20T19:05:32.721Z,-19.14
2022-11-20T19:08:39.949Z,-19.16
2022-11-20T19:11:49.041Z,-19.19
2022-11-20T19:14:58.396Z,-19.29
2022-11-20T19:18:10.081Z,-19.29
2022-11-20T19:21:23.517Z,-19.35
2022-11-20T19:24:33.982Z,-19.52
2022-11-20T19:27:45.058Z,-19.58
2022-11-20T19:30:56.960Z,-19.56
2022-11-20T19:34:07.842Z,-19.63
2022-11-20T19:37:16.459Z,-19.65
2022-11-20T19:40:24.563Z,-19.69
2022-11-20T19:43:34.312Z,-19.60
2022-11-20T19:46:42.242Z,-19.60
2022-11-20T19:49:49.986Z,-19.58
2022-11-20T19:52:59.768Z,-19.58
2022-11-20T19:56:09.210Z,-19.58
2022-11-20T19:59:21.364Z,-19.52
2022-11-20T20:02:34.775Z,-19.49
2022-11-20T20:05:46.346Z,-19.48
2022-11-20T20:09:15.554Z,-19.49
2022-11-20T20:12:24.991Z,-19.52
2022-11-20T20:15:32.493Z,-19.53
2022-11-20T20:18:43.561Z,-19.56
2022-11-20T20:21:54.242Z,-19.55
2022-11-20T20:25:02.855Z,-19.53
2022-11-20T20:28:15.685Z,-19.50
2022-11-20T20:31:28.554Z,-19.58
2022-11-20T20:34:39.161Z,-19.60
2022-11-20T20:37:47.178Z,-19.58
2022-11-20T20:40:55.061Z,-19.59
2022-11-20T20:44:20.301Z,-19.71
2022-11-20T20:47:28.201Z,-19.73
2022-11-20T20:50:36.713Z,-19.76
2022-11-20T20:53:48.317Z,-19.80
2022-11-20T20:56:58.270Z,-19.79
2022-11-20T21:00:07.295Z,-19.79
2022-11-20T21:03:16.744Z,-19.87
2022-11-20T21:06:27.824Z,-19.87
2022-11-20T21:09:37.869Z,-19.81
2022-11-20T21:12:49.872Z,-19.83
2022-11-20T21:16:00.240Z,-19.86
2022-11-20T21:19:08.761Z,-19.87
2022-11-20T21:22:16.773Z,-19.86
2022-11-20T21:25:26.507Z,-19.80
2022-11-20T21:28:35.131Z,-19.83
2022-11-20T21:31:42.941Z,-19.86
2022-11-20T21:34:50.541Z,-19.83
2022-11-20T21:37:57.824Z,-19.83
2022-11-20T21:41:09.418Z,-19.90
2022-11-20T21:44:35.348Z,-19.96
2022-11-20T21:47:43.989Z,-20.04
2022-11-20T21:50:54.858Z,-20.17
2022-11-20T21:54:04.600Z,-20.21
2022-11-20T21:57:14.723Z,-20.28
2022-11-20T22:00:24.196Z,-20.28
2022-11-20T22:03:33.745Z,-20.35
2022-11-20T22:06:42.989Z,-20.36
2022-11-20T22:09:53.036Z,-20.32
2022-11-20T22:13:39.963Z,-20.26
2022-11-20T22:16:58.191Z,-20.24
2022-11-20T22:20:11.966Z,-20.24
2022-11-20T22:23:24.346Z,-20.22
2022-11-20T22:26:40.219Z,-20.19
2022-11-20T22:29:47.441Z,-20.19
2022-11-20T22:32:59.428Z,-20.17
2022-11-20T22:36:12.720Z,-20.19
2022-11-20T22:39:26.825Z,-20.18
2022-11-20T22:42:41.277Z,-20.15
2022-11-20T22:45:55.896Z,-20.12
2022-11-20T22:49:06.224Z,-20.18
2022-11-20T22:52:15.987Z,-20.17
2022-11-20T22:55:22.774Z,-20.24
2022-11-20T22:58:34.109Z,-20.25
2022-11-20T23:01:41.495Z,-20.26
2022-11-20T23:04:50.125Z,-20.26
2022-11-20T23:07:55.181Z,-20.30
2022-11-20T23:11:10.305Z,-20.37
2022-11-20T23:14:21.526Z,-20.45
2022-11-20T23:17:33.956Z,-20.40
2022-11-20T23:20:40.924Z,-20.43
2022-11-20T23:23:50.455Z,-20.52
2022-11-20T23:26:54.958Z,-20.70
2022-11-20T23:30:00.317Z,-20.84
2022-11-20T23:33:05.762Z,-20.95
2022-11-20T23:36:11.230Z,-21.08
2022-11-20T23:39:18.328Z,-21.11
2022-11-20T23:42:23.451Z,-21.09
2022-11-20T23:45:30.661Z,-21.12
2022-11-20T23:48:41.323Z,-21.15
2022-11-20T23:51:49.117Z,-21.06
2022-11-20T23:54:56.617Z,-21.04
2022-11-20T23:58:02.884Z,-20.99
